Terminal Aerodrome Forecast
Issued by NWS Billings, MT

Home | Current Version | Previous Version | Graphics & Text | Print | Product List | Glossary On
Versions: 1 2 3 4 5 6 7 8 9 10 11 12 13 14 15 16 17 18 19
000
FTUS45 KBYZ 300520
TAFMLS
TAF
KMLS 300520Z 3006/0106 31012G20KT P6SM VCSH BKN020 OVC050
     FM300900 30012KT P6SM BKN025 BKN050
     FM301400 29007KT P6SM SCT025 BKN100
     FM010000 VRB05KT P6SM SCT150=

USA.gov is the U.S. government's official web portal to all federal, state and local government web resources and services.